sensor_id;sensor_type;location;lat;lon;timestamp;P1;durP1;ratioP1;P2;durP2;ratioP2
75061;SDS011;63641;46.526;24.612;2023-02-11T00:01:04;41.60;;;25.45;;
75061;SDS011;63641;46.526;24.612;2023-02-11T00:03:33;37.28;;;23.38;;
75061;SDS011;63641;46.526;24.612;2023-02-11T00:06:01;34.40;;;22.90;;
75061;SDS011;63641;46.526;24.612;2023-02-11T00:08:30;39.20;;;24.08;;
75061;SDS011;63641;46.526;24.612;2023-02-11T00:10:57;39.22;;;25.05;;
75061;SDS011;63641;46.526;24.612;2023-02-11T00:13:24;36.55;;;25.45;;
75061;SDS011;63641;46.526;24.612;2023-02-11T00:15:51;36.00;;;23.13;;
75061;SDS011;63641;46.526;24.612;2023-02-11T00:18:19;38.38;;;23.65;;
75061;SDS011;63641;46.526;24.612;2023-02-11T00:20:46;34.95;;;23.45;;
75061;SDS011;63641;46.526;24.612;2023-02-11T00:23:13;41.05;;;23.77;;
75061;SDS011;63641;46.526;24.612;2023-02-11T00:25:41;34.72;;;22.55;;
75061;SDS011;63641;46.526;24.612;2023-02-11T00:28:10;36.63;;;22.10;;
75061;SDS011;63641;46.526;24.612;2023-02-11T00:30:37;45.15;;;24.80;;
75061;SDS011;63641;46.526;24.612;2023-02-11T00:33:05;42.72;;;24.50;;
75061;SDS011;63641;46.526;24.612;2023-02-11T00:35:31;43.58;;;28.33;;
75061;SDS011;63641;46.526;24.612;2023-02-11T00:37:58;52.28;;;28.65;;
75061;SDS011;63641;46.526;24.612;2023-02-11T00:40:25;41.58;;;25.70;;
75061;SDS011;63641;46.526;24.612;2023-02-11T00:42:51;38.75;;;26.58;;
75061;SDS011;63641;46.526;24.612;2023-02-11T00:45:18;52.80;;;30.88;;
75061;SDS011;63641;46.526;24.612;2023-02-11T00:47:46;49.15;;;30.77;;
75061;SDS011;63641;46.526;24.612;2023-02-11T00:50:13;65.47;;;35.10;;
75061;SDS011;63641;46.526;24.612;2023-02-11T00:52:40;54.53;;;33.95;;
75061;SDS011;63641;46.526;24.612;2023-02-11T00:55:07;50.70;;;32.40;;
75061;SDS011;63641;46.526;24.612;2023-02-11T00:57:34;50.03;;;31.13;;
75061;SDS011;63641;46.526;24.612;2023-02-11T01:00:00;59.15;;;31.50;;
75061;SDS011;63641;46.526;24.612;2023-02-11T01:02:28;51.60;;;32.45;;
75061;SDS011;63641;46.526;24.612;2023-02-11T01:04:54;46.25;;;30.23;;
75061;SDS011;63641;46.526;24.612;2023-02-11T01:07:21;55.35;;;32.30;;
75061;SDS011;63641;46.526;24.612;2023-02-11T01:09:48;56.70;;;33.13;;
75061;SDS011;63641;46.526;24.612;2023-02-11T01:12:15;48.50;;;28.95;;
75061;SDS011;63641;46.526;24.612;2023-02-11T01:14:42;48.95;;;28.58;;
75061;SDS011;63641;46.526;24.612;2023-02-11T01:17:09;46.83;;;30.15;;
75061;SDS011;63641;46.526;24.612;2023-02-11T01:19:36;49.08;;;30.73;;
75061;SDS011;63641;46.526;24.612;2023-02-11T01:22:03;46.05;;;29.80;;
75061;SDS011;63641;46.526;24.612;2023-02-11T01:24:31;54.55;;;31.30;;
75061;SDS011;63641;46.526;24.612;2023-02-11T01:26:57;47.88;;;29.88;;
75061;SDS011;63641;46.526;24.612;2023-02-11T01:29:24;55.50;;;30.17;;
75061;SDS011;63641;46.526;24.612;2023-02-11T01:31:51;45.88;;;29.88;;
75061;SDS011;63641;46.526;24.612;2023-02-11T01:34:18;48.13;;;29.35;;
75061;SDS011;63641;46.526;24.612;2023-02-11T01:36:45;50.53;;;29.42;;
75061;SDS011;63641;46.526;24.612;2023-02-11T01:39:12;45.67;;;27.70;;
75061;SDS011;63641;46.526;24.612;2023-02-11T01:41:38;44.63;;;27.17;;
75061;SDS011;63641;46.526;24.612;2023-02-11T01:44:21;45.45;;;26.38;;
75061;SDS011;63641;46.526;24.612;2023-02-11T01:46:59;43.53;;;25.95;;
75061;SDS011;63641;46.526;24.612;2023-02-11T01:49:30;42.67;;;25.90;;
75061;SDS011;63641;46.526;24.612;2023-02-11T01:54:34;31.65;;;22.10;;
75061;SDS011;63641;46.526;24.612;2023-02-11T01:57:45;43.33;;;25.58;;
75061;SDS011;63641;46.526;24.612;2023-02-11T02:03:04;42.45;;;28.27;;
75061;SDS011;63641;46.526;24.612;2023-02-11T02:05:53;48.78;;;28.25;;
75061;SDS011;63641;46.526;24.612;2023-02-11T02:08:29;50.47;;;28.95;;
75061;SDS011;63641;46.526;24.612;2023-02-11T02:11:07;49.83;;;28.95;;
75061;SDS011;63641;46.526;24.612;2023-02-11T02:13:35;52.55;;;31.90;;
75061;SDS011;63641;46.526;24.612;2023-02-11T02:16:05;48.45;;;30.63;;
75061;SDS011;63641;46.526;24.612;2023-02-11T02:22:03;57.40;;;32.00;;
75061;SDS011;63641;46.526;24.612;2023-02-11T02:38:52;50.90;;;28.63;;
75061;SDS011;63641;46.526;24.612;2023-02-11T02:41:22;45.78;;;28.20;;
75061;SDS011;63641;46.526;24.612;2023-02-11T02:43:53;44.60;;;29.02;;
75061;SDS011;63641;46.526;24.612;2023-02-11T02:46:24;43.40;;;27.45;;
75061;SDS011;63641;46.526;24.612;2023-02-11T02:48:53;47.33;;;27.40;;
75061;SDS011;63641;46.526;24.612;2023-02-11T02:51:36;45.03;;;25.80;;
75061;SDS011;63641;46.526;24.612;2023-02-11T03:07:57;39.83;;;24.85;;
75061;SDS011;63641;46.526;24.612;2023-02-11T03:10:35;41.28;;;23.77;;
75061;SDS011;63641;46.526;24.612;2023-02-11T03:13:05;38.72;;;24.70;;
75061;SDS011;63641;46.526;24.612;2023-02-11T03:15:40;41.47;;;26.45;;
75061;SDS011;63641;46.526;24.612;2023-02-11T03:18:10;46.88;;;27.58;;
75061;SDS011;63641;46.526;24.612;2023-02-11T03:20:42;39.47;;;25.58;;
75061;SDS011;63641;46.526;24.612;2023-02-11T03:25:44;43.83;;;26.17;;
75061;SDS011;63641;46.526;24.612;2023-02-11T03:31:04;41.67;;;26.38;;
75061;SDS011;63641;46.526;24.612;2023-02-11T03:37:06;38.60;;;22.05;;
75061;SDS011;63641;46.526;24.612;2023-02-11T03:39:37;39.08;;;22.52;;
75061;SDS011;63641;46.526;24.612;2023-02-11T03:42:07;33.63;;;21.35;;
75061;SDS011;63641;46.526;24.612;2023-02-11T03:44:37;33.08;;;22.63;;
75061;SDS011;63641;46.526;24.612;2023-02-11T03:47:09;37.97;;;22.98;;
75061;SDS011;63641;46.526;24.612;2023-02-11T03:49:40;37.03;;;25.42;;
75061;SDS011;63641;46.526;24.612;2023-02-11T03:52:10;47.60;;;25.42;;
75061;SDS011;63641;46.526;24.612;2023-02-11T03:54:39;36.08;;;23.52;;
75061;SDS011;63641;46.526;24.612;2023-02-11T03:57:08;33.83;;;23.48;;
75061;SDS011;63641;46.526;24.612;2023-02-11T03:59:51;33.63;;;21.90;;
75061;SDS011;63641;46.526;24.612;2023-02-11T04:02:20;38.97;;;24.08;;
75061;SDS011;63641;46.526;24.612;2023-02-11T04:04:49;37.95;;;22.92;;
75061;SDS011;63641;46.526;24.612;2023-02-11T04:07:16;40.25;;;25.13;;
75061;SDS011;63641;46.526;24.612;2023-02-11T04:09:43;39.38;;;25.17;;
75061;SDS011;63641;46.526;24.612;2023-02-11T04:12:10;41.72;;;25.30;;
75061;SDS011;63641;46.526;24.612;2023-02-11T04:14:39;37.90;;;23.73;;
75061;SDS011;63641;46.526;24.612;2023-02-11T04:17:05;37.50;;;23.23;;
75061;SDS011;63641;46.526;24.612;2023-02-11T04:19:33;36.55;;;25.17;;
75061;SDS011;63641;46.526;24.612;2023-02-11T04:22:02;38.85;;;24.83;;
75061;SDS011;63641;46.526;24.612;2023-02-11T04:24:34;38.10;;;23.38;;
75061;SDS011;63641;46.526;24.612;2023-02-11T04:27:01;37.53;;;22.70;;
75061;SDS011;63641;46.526;24.612;2023-02-11T04:29:27;36.00;;;23.15;;
75061;SDS011;63641;46.526;24.612;2023-02-11T04:31:54;48.95;;;26.25;;
75061;SDS011;63641;46.526;24.612;2023-02-11T04:34:21;43.03;;;24.25;;
75061;SDS011;63641;46.526;24.612;2023-02-11T04:36:49;39.85;;;25.70;;
75061;SDS011;63641;46.526;24.612;2023-02-11T04:39:17;40.85;;;25.08;;
75061;SDS011;63641;46.526;24.612;2023-02-11T04:41:43;37.67;;;26.13;;
75061;SDS011;63641;46.526;24.612;2023-02-11T04:44:10;33.70;;;24.58;;
75061;SDS011;63641;46.526;24.612;2023-02-11T04:46:37;46.75;;;28.17;;
75061;SDS011;63641;46.526;24.612;2023-02-11T04:49:04;38.85;;;24.83;;
75061;SDS011;63641;46.526;24.612;2023-02-11T04:51:31;45.25;;;25.95;;
75061;SDS011;63641;46.526;24.612;2023-02-11T04:53:57;80.60;;;28.80;;
75061;SDS011;63641;46.526;24.612;2023-02-11T04:56:24;39.70;;;24.17;;
75061;SDS011;63641;46.526;24.612;2023-02-11T04:58:51;44.42;;;25.77;;
75061;SDS011;63641;46.526;24.612;2023-02-11T05:01:18;42.58;;;23.70;;
75061;SDS011;63641;46.526;24.612;2023-02-11T05:03:44;34.33;;;24.17;;
75061;SDS011;63641;46.526;24.612;2023-02-11T05:06:11;40.35;;;24.80;;
75061;SDS011;63641;46.526;24.612;2023-02-11T05:08:38;36.33;;;24.38;;
75061;SDS011;63641;46.526;24.612;2023-02-11T05:11:06;37.97;;;25.48;;
75061;SDS011;63641;46.526;24.612;2023-02-11T05:13:39;36.60;;;24.90;;
75061;SDS011;63641;46.526;24.612;2023-02-11T05:16:06;34.67;;;24.50;;
75061;SDS011;63641;46.526;24.612;2023-02-11T05:18:33;43.42;;;26.42;;
75061;SDS011;63641;46.526;24.612;2023-02-11T05:21:13;42.42;;;25.75;;
75061;SDS011;63641;46.526;24.612;2023-02-11T05:23:41;42.55;;;26.38;;
75061;SDS011;63641;46.526;24.612;2023-02-11T05:26:08;58.95;;;26.90;;
75061;SDS011;63641;46.526;24.612;2023-02-11T05:28:36;37.75;;;25.50;;
75061;SDS011;63641;46.526;24.612;2023-02-11T05:31:03;36.67;;;24.90;;
75061;SDS011;63641;46.526;24.612;2023-02-11T05:33:35;40.00;;;25.17;;
75061;SDS011;63641;46.526;24.612;2023-02-11T05:36:03;41.53;;;24.85;;
75061;SDS011;63641;46.526;24.612;2023-02-11T05:38:32;47.30;;;28.05;;
75061;SDS011;63641;46.526;24.612;2023-02-11T05:40:59;48.83;;;27.33;;
75061;SDS011;63641;46.526;24.612;2023-02-11T05:43:26;40.90;;;27.88;;
75061;SDS011;63641;46.526;24.612;2023-02-11T05:45:52;45.58;;;28.95;;
75061;SDS011;63641;46.526;24.612;2023-02-11T05:48:20;43.63;;;28.25;;
75061;SDS011;63641;46.526;24.612;2023-02-11T05:50:46;41.35;;;27.85;;
75061;SDS011;63641;46.526;24.612;2023-02-11T05:53:13;43.53;;;28.42;;
75061;SDS011;63641;46.526;24.612;2023-02-11T05:55:41;47.45;;;29.10;;
75061;SDS011;63641;46.526;24.612;2023-02-11T05:58:07;54.83;;;25.98;;
75061;SDS011;63641;46.526;24.612;2023-02-11T06:00:35;43.75;;;27.15;;
75061;SDS011;63641;46.526;24.612;2023-02-11T06:03:02;49.70;;;31.40;;
75061;SDS011;63641;46.526;24.612;2023-02-11T06:05:30;61.90;;;34.83;;
75061;SDS011;63641;46.526;24.612;2023-02-11T06:07:57;54.65;;;32.72;;
75061;SDS011;63641;46.526;24.612;2023-02-11T06:10:23;60.55;;;33.40;;
75061;SDS011;63641;46.526;24.612;2023-02-11T06:12:51;60.80;;;33.90;;
75061;SDS011;63641;46.526;24.612;2023-02-11T06:15:17;64.00;;;35.72;;
75061;SDS011;63641;46.526;24.612;2023-02-11T06:17:44;68.68;;;37.10;;
75061;SDS011;63641;46.526;24.612;2023-02-11T06:20:11;57.20;;;34.42;;
75061;SDS011;63641;46.526;24.612;2023-02-11T06:22:38;59.63;;;35.38;;
75061;SDS011;63641;46.526;24.612;2023-02-11T06:25:05;78.07;;;41.13;;
75061;SDS011;63641;46.526;24.612;2023-02-11T06:27:32;62.90;;;37.42;;
75061;SDS011;63641;46.526;24.612;2023-02-11T06:29:59;71.47;;;36.13;;
75061;SDS011;63641;46.526;24.612;2023-02-11T06:32:26;64.40;;;35.40;;
75061;SDS011;63641;46.526;24.612;2023-02-11T06:35:10;72.05;;;40.45;;
75061;SDS011;63641;46.526;24.612;2023-02-11T06:37:38;63.70;;;39.17;;
75061;SDS011;63641;46.526;24.612;2023-02-11T06:40:05;73.20;;;40.30;;
75061;SDS011;63641;46.526;24.612;2023-02-11T06:42:32;80.00;;;43.35;;
75061;SDS011;63641;46.526;24.612;2023-02-11T06:45:01;91.18;;;49.58;;
75061;SDS011;63641;46.526;24.612;2023-02-11T06:47:31;99.63;;;48.65;;
75061;SDS011;63641;46.526;24.612;2023-02-11T06:49:58;95.40;;;50.45;;
75061;SDS011;63641;46.526;24.612;2023-02-11T06:52:25;91.22;;;51.65;;
75061;SDS011;63641;46.526;24.612;2023-02-11T06:54:52;103.72;;;53.03;;
75061;SDS011;63641;46.526;24.612;2023-02-11T06:57:18;87.55;;;51.42;;
75061;SDS011;63641;46.526;24.612;2023-02-11T06:59:45;108.30;;;52.25;;
75061;SDS011;63641;46.526;24.612;2023-02-11T07:02:12;103.25;;;54.22;;
75061;SDS011;63641;46.526;24.612;2023-02-11T07:04:39;97.55;;;54.58;;
75061;SDS011;63641;46.526;24.612;2023-02-11T07:07:06;118.53;;;59.92;;
75061;SDS011;63641;46.526;24.612;2023-02-11T07:09:32;107.22;;;57.58;;
75061;SDS011;63641;46.526;24.612;2023-02-11T07:11:59;115.50;;;58.17;;
75061;SDS011;63641;46.526;24.612;2023-02-11T07:14:26;105.63;;;52.20;;
75061;SDS011;63641;46.526;24.612;2023-02-11T07:16:52;123.40;;;56.17;;
75061;SDS011;63641;46.526;24.612;2023-02-11T07:19:19;110.60;;;54.90;;
75061;SDS011;63641;46.526;24.612;2023-02-11T07:21:46;114.53;;;58.15;;
75061;SDS011;63641;46.526;24.612;2023-02-11T07:24:13;107.28;;;53.03;;
75061;SDS011;63641;46.526;24.612;2023-02-11T07:26:40;109.13;;;52.95;;
75061;SDS011;63641;46.526;24.612;2023-02-11T07:29:07;110.78;;;54.30;;
75061;SDS011;63641;46.526;24.612;2023-02-11T07:31:35;100.20;;;51.40;;
75061;SDS011;63641;46.526;24.612;2023-02-11T07:34:02;93.95;;;50.95;;
75061;SDS011;63641;46.526;24.612;2023-02-11T07:36:30;99.53;;;48.65;;
75061;SDS011;63641;46.526;24.612;2023-02-11T07:38:57;90.90;;;47.88;;
75061;SDS011;63641;46.526;24.612;2023-02-11T07:41:25;73.85;;;44.38;;
75061;SDS011;63641;46.526;24.612;2023-02-11T07:43:53;66.15;;;40.03;;
75061;SDS011;63641;46.526;24.612;2023-02-11T07:46:23;68.70;;;39.20;;
75061;SDS011;63641;46.526;24.612;2023-02-11T07:48:52;73.03;;;40.35;;
75061;SDS011;63641;46.526;24.612;2023-02-11T07:51:23;69.95;;;40.25;;
75061;SDS011;63641;46.526;24.612;2023-02-11T07:53:52;76.27;;;40.10;;
75061;SDS011;63641;46.526;24.612;2023-02-11T07:56:21;59.50;;;38.38;;
75061;SDS011;63641;46.526;24.612;2023-02-11T07:58:48;66.45;;;39.60;;
75061;SDS011;63641;46.526;24.612;2023-02-11T08:01:17;75.93;;;41.92;;
75061;SDS011;63641;46.526;24.612;2023-02-11T08:03:50;73.68;;;38.50;;
75061;SDS011;63641;46.526;24.612;2023-02-11T08:06:18;76.28;;;45.47;;
75061;SDS011;63641;46.526;24.612;2023-02-11T08:08:46;83.10;;;43.60;;
75061;SDS011;63641;46.526;24.612;2023-02-11T08:11:17;65.47;;;40.42;;
75061;SDS011;63641;46.526;24.612;2023-02-11T08:13:48;70.25;;;40.20;;
75061;SDS011;63641;46.526;24.612;2023-02-11T08:16:19;58.20;;;37.00;;
75061;SDS011;63641;46.526;24.612;2023-02-11T08:18:48;62.22;;;36.85;;
75061;SDS011;63641;46.526;24.612;2023-02-11T08:21:16;61.95;;;35.92;;
75061;SDS011;63641;46.526;24.612;2023-02-11T08:23:44;60.83;;;36.83;;
75061;SDS011;63641;46.526;24.612;2023-02-11T08:26:12;63.10;;;35.80;;
75061;SDS011;63641;46.526;24.612;2023-02-11T08:28:41;60.17;;;33.50;;
75061;SDS011;63641;46.526;24.612;2023-02-11T08:31:14;53.50;;;32.17;;
75061;SDS011;63641;46.526;24.612;2023-02-11T08:33:43;52.78;;;32.75;;
75061;SDS011;63641;46.526;24.612;2023-02-11T08:36:14;54.78;;;33.20;;
75061;SDS011;63641;46.526;24.612;2023-02-11T08:38:42;54.25;;;30.13;;
75061;SDS011;63641;46.526;24.612;2023-02-11T08:41:10;42.83;;;25.70;;
75061;SDS011;63641;46.526;24.612;2023-02-11T08:43:36;38.45;;;24.48;;
75061;SDS011;63641;46.526;24.612;2023-02-11T08:46:07;42.35;;;25.23;;
75061;SDS011;63641;46.526;24.612;2023-02-11T08:48:35;42.47;;;24.95;;
75061;SDS011;63641;46.526;24.612;2023-02-11T08:51:08;38.83;;;24.73;;
75061;SDS011;63641;46.526;24.612;2023-02-11T08:53:38;44.10;;;26.58;;
75061;SDS011;63641;46.526;24.612;2023-02-11T08:56:05;41.30;;;25.77;;
75061;SDS011;63641;46.526;24.612;2023-02-11T08:58:32;46.60;;;26.70;;
75061;SDS011;63641;46.526;24.612;2023-02-11T09:00:59;45.38;;;25.50;;
75061;SDS011;63641;46.526;24.612;2023-02-11T09:03:26;34.90;;;22.73;;
75061;SDS011;63641;46.526;24.612;2023-02-11T09:05:53;40.00;;;25.30;;
75061;SDS011;63641;46.526;24.612;2023-02-11T09:08:20;39.15;;;24.60;;
75061;SDS011;63641;46.526;24.612;2023-02-11T09:10:47;39.58;;;24.48;;
75061;SDS011;63641;46.526;24.612;2023-02-11T09:13:14;38.17;;;22.83;;
75061;SDS011;63641;46.526;24.612;2023-02-11T09:15:45;39.63;;;24.92;;
75061;SDS011;63641;46.526;24.612;2023-02-11T09:18:12;40.35;;;25.58;;
75061;SDS011;63641;46.526;24.612;2023-02-11T09:20:39;42.25;;;24.70;;
75061;SDS011;63641;46.526;24.612;2023-02-11T09:23:06;38.17;;;24.65;;
75061;SDS011;63641;46.526;24.612;2023-02-11T09:25:32;37.38;;;25.35;;
75061;SDS011;63641;46.526;24.612;2023-02-11T09:27:59;46.65;;;25.35;;
75061;SDS011;63641;46.526;24.612;2023-02-11T09:30:26;40.53;;;26.02;;
75061;SDS011;63641;46.526;24.612;2023-02-11T09:32:53;42.35;;;26.27;;
75061;SDS011;63641;46.526;24.612;2023-02-11T09:35:20;40.65;;;26.08;;
75061;SDS011;63641;46.526;24.612;2023-02-11T09:37:47;39.20;;;26.67;;
75061;SDS011;63641;46.526;24.612;2023-02-11T09:40:14;39.45;;;24.92;;
75061;SDS011;63641;46.526;24.612;2023-02-11T09:45:34;39.50;;;24.77;;
75061;SDS011;63641;46.526;24.612;2023-02-11T09:48:05;41.83;;;25.38;;
75061;SDS011;63641;46.526;24.612;2023-02-11T09:50:41;36.00;;;23.90;;
75061;SDS011;63641;46.526;24.612;2023-02-11T09:55:39;34.10;;;22.60;;
75061;SDS011;63641;46.526;24.612;2023-02-11T09:58:12;33.47;;;22.02;;
75061;SDS011;63641;46.526;24.612;2023-02-11T10:00:47;34.38;;;22.73;;
75061;SDS011;63641;46.526;24.612;2023-02-11T10:03:47;33.75;;;22.58;;
75061;SDS011;63641;46.526;24.612;2023-02-11T10:06:45;36.55;;;23.42;;
75061;SDS011;63641;46.526;24.612;2023-02-11T10:11:53;34.80;;;22.13;;
75061;SDS011;63641;46.526;24.612;2023-02-11T10:23:16;31.20;;;20.15;;
75061;SDS011;63641;46.526;24.612;2023-02-11T10:26:07;34.05;;;20.85;;
75061;SDS011;63641;46.526;24.612;2023-02-11T10:28:42;31.80;;;19.52;;
75061;SDS011;63641;46.526;24.612;2023-02-11T10:31:13;33.45;;;21.08;;
75061;SDS011;63641;46.526;24.612;2023-02-11T10:34:04;33.47;;;22.15;;
75061;SDS011;63641;46.526;24.612;2023-02-11T10:36:35;44.42;;;22.33;;
75061;SDS011;63641;46.526;24.612;2023-02-11T10:41:46;32.28;;;21.80;;
75061;SDS011;63641;46.526;24.612;2023-02-11T10:44:22;30.48;;;20.08;;
75061;SDS011;63641;46.526;24.612;2023-02-11T10:46:53;35.85;;;22.30;;
75061;SDS011;63641;46.526;24.612;2023-02-11T10:49:40;34.72;;;21.30;;
75061;SDS011;63641;46.526;24.612;2023-02-11T10:54:39;40.58;;;29.20;;
75061;SDS011;63641;46.526;24.612;2023-02-11T10:57:05;43.55;;;30.00;;
75061;SDS011;63641;46.526;24.612;2023-02-11T10:59:36;44.47;;;30.13;;
75061;SDS011;63641;46.526;24.612;2023-02-11T11:02:26;47.03;;;29.58;;
75061;SDS011;63641;46.526;24.612;2023-02-11T11:05:05;42.83;;;29.13;;
75061;SDS011;63641;46.526;24.612;2023-02-11T11:08:19;48.42;;;30.15;;
75061;SDS011;63641;46.526;24.612;2023-02-11T11:10:39;45.85;;;28.75;;
75061;SDS011;63641;46.526;24.612;2023-02-11T11:13:23;41.60;;;28.30;;
75061;SDS011;63641;46.526;24.612;2023-02-11T11:18:38;41.03;;;24.70;;
75061;SDS011;63641;46.526;24.612;2023-02-11T11:23:53;38.75;;;26.45;;
75061;SDS011;63641;46.526;24.612;2023-02-11T11:26:22;35.15;;;25.00;;
75061;SDS011;63641;46.526;24.612;2023-02-11T11:28:52;34.13;;;23.58;;
75061;SDS011;63641;46.526;24.612;2023-02-11T11:33:53;35.15;;;24.95;;
75061;SDS011;63641;46.526;24.612;2023-02-11T11:36:33;37.80;;;24.23;;
75061;SDS011;63641;46.526;24.612;2023-02-11T11:39:16;39.58;;;24.95;;
75061;SDS011;63641;46.526;24.612;2023-02-11T11:41:53;34.17;;;22.75;;
75061;SDS011;63641;46.526;24.612;2023-02-11T11:49:49;28.65;;;19.23;;
75061;SDS011;63641;46.526;24.612;2023-02-11T11:52:47;28.90;;;19.90;;
75061;SDS011;63641;46.526;24.612;2023-02-11T11:55:43;32.03;;;19.70;;
75061;SDS011;63641;46.526;24.612;2023-02-11T11:58:15;27.73;;;19.63;;
75061;SDS011;63641;46.526;24.612;2023-02-11T12:09:03;24.45;;;17.20;;
75061;SDS011;63641;46.526;24.612;2023-02-11T12:28:54;22.83;;;16.25;;
75061;SDS011;63641;46.526;24.612;2023-02-11T12:40:21;19.98;;;14.23;;
75061;SDS011;63641;46.526;24.612;2023-02-11T12:42:54;21.75;;;14.05;;
75061;SDS011;63641;46.526;24.612;2023-02-11T12:45:59;22.65;;;13.18;;
75061;SDS011;63641;46.526;24.612;2023-02-11T12:48:52;20.67;;;15.30;;
75061;SDS011;63641;46.526;24.612;2023-02-11T12:54:29;29.77;;;18.48;;
75061;SDS011;63641;46.526;24.612;2023-02-11T12:57:05;16.55;;;12.55;;
75061;SDS011;63641;46.526;24.612;2023-02-11T12:59:46;53.50;;;28.58;;
75061;SDS011;63641;46.526;24.612;2023-02-11T13:10:42;20.00;;;13.55;;
75061;SDS011;63641;46.526;24.612;2023-02-11T13:16:03;20.13;;;13.93;;
75061;SDS011;63641;46.526;24.612;2023-02-11T13:24:06;20.38;;;14.30;;
75061;SDS011;63641;46.526;24.612;2023-02-11T13:27:03;19.42;;;13.93;;
75061;SDS011;63641;46.526;24.612;2023-02-11T13:35:31;24.75;;;15.60;;
75061;SDS011;63641;46.526;24.612;2023-02-11T13:38:11;24.52;;;15.30;;
75061;SDS011;63641;46.526;24.612;2023-02-11T13:43:43;21.63;;;15.75;;
75061;SDS011;63641;46.526;24.612;2023-02-11T13:46:22;22.48;;;14.68;;
75061;SDS011;63641;46.526;24.612;2023-02-11T13:48:52;18.17;;;13.63;;
75061;SDS011;63641;46.526;24.612;2023-02-11T13:51:36;18.50;;;13.93;;
75061;SDS011;63641;46.526;24.612;2023-02-11T13:56:39;21.58;;;14.38;;
75061;SDS011;63641;46.526;24.612;2023-02-11T14:05:00;20.35;;;14.20;;
75061;SDS011;63641;46.526;24.612;2023-02-11T14:10:59;19.67;;;15.40;;
75061;SDS011;63641;46.526;24.612;2023-02-11T14:16:11;18.35;;;13.40;;
75061;SDS011;63641;46.526;24.612;2023-02-11T14:19:02;20.87;;;14.50;;
75061;SDS011;63641;46.526;24.612;2023-02-11T14:21:34;21.83;;;14.80;;
75061;SDS011;63641;46.526;24.612;2023-02-11T14:43:12;31.55;;;22.73;;
75061;SDS011;63641;46.526;24.612;2023-02-11T14:45:55;34.60;;;23.77;;
75061;SDS011;63641;46.526;24.612;2023-02-11T14:48:27;31.50;;;22.30;;
75061;SDS011;63641;46.526;24.612;2023-02-11T14:51:18;37.30;;;24.45;;
75061;SDS011;63641;46.526;24.612;2023-02-11T14:53:47;33.65;;;23.33;;
75061;SDS011;63641;46.526;24.612;2023-02-11T14:56:21;35.22;;;23.48;;
75061;SDS011;63641;46.526;24.612;2023-02-11T14:58:52;35.83;;;24.10;;
75061;SDS011;63641;46.526;24.612;2023-02-11T15:01:33;33.70;;;22.52;;
75061;SDS011;63641;46.526;24.612;2023-02-11T15:04:02;35.13;;;23.92;;
75061;SDS011;63641;46.526;24.612;2023-02-11T15:06:38;31.92;;;22.08;;
75061;SDS011;63641;46.526;24.612;2023-02-11T15:09:52;33.78;;;22.00;;
75061;SDS011;63641;46.526;24.612;2023-02-11T15:12:14;31.98;;;22.80;;
75061;SDS011;63641;46.526;24.612;2023-02-11T15:14:52;37.42;;;23.65;;
75061;SDS011;63641;46.526;24.612;2023-02-11T15:17:22;35.40;;;21.85;;
75061;SDS011;63641;46.526;24.612;2023-02-11T15:19:53;36.22;;;22.80;;
75061;SDS011;63641;46.526;24.612;2023-02-11T15:22:25;33.28;;;22.75;;
75061;SDS011;63641;46.526;24.612;2023-02-11T15:25:07;36.97;;;23.50;;
75061;SDS011;63641;46.526;24.612;2023-02-11T15:27:36;36.28;;;24.30;;
75061;SDS011;63641;46.526;24.612;2023-02-11T15:32:47;32.53;;;24.38;;
75061;SDS011;63641;46.526;24.612;2023-02-11T15:35:24;31.90;;;23.65;;
75061;SDS011;63641;46.526;24.612;2023-02-11T15:37:54;38.88;;;25.17;;
75061;SDS011;63641;46.526;24.612;2023-02-11T15:40:26;50.40;;;25.25;;
75061;SDS011;63641;46.526;24.612;2023-02-11T15:43:01;37.25;;;23.52;;
75061;SDS011;63641;46.526;24.612;2023-02-11T15:45:37;33.90;;;22.02;;
75061;SDS011;63641;46.526;24.612;2023-02-11T15:50:57;36.20;;;22.80;;
75061;SDS011;63641;46.526;24.612;2023-02-11T15:53:35;35.17;;;22.40;;
75061;SDS011;63641;46.526;24.612;2023-02-11T15:56:11;34.65;;;24.05;;
75061;SDS011;63641;46.526;24.612;2023-02-11T15:58:39;41.35;;;26.92;;
75061;SDS011;63641;46.526;24.612;2023-02-11T16:01:07;44.50;;;27.83;;
75061;SDS011;63641;46.526;24.612;2023-02-11T16:03:34;43.53;;;26.98;;
75061;SDS011;63641;46.526;24.612;2023-02-11T16:06:15;46.75;;;28.58;;
75061;SDS011;63641;46.526;24.612;2023-02-11T16:08:42;54.03;;;37.03;;
75061;SDS011;63641;46.526;24.612;2023-02-11T16:11:21;46.13;;;32.67;;
75061;SDS011;63641;46.526;24.612;2023-02-11T16:13:51;44.72;;;29.98;;
75061;SDS011;63641;46.526;24.612;2023-02-11T16:16:22;37.95;;;24.77;;
75061;SDS011;63641;46.526;24.612;2023-02-11T16:18:53;38.03;;;26.98;;
75061;SDS011;63641;46.526;24.612;2023-02-11T16:21:32;39.03;;;27.77;;
75061;SDS011;63641;46.526;24.612;2023-02-11T16:24:01;42.72;;;25.63;;
75061;SDS011;63641;46.526;24.612;2023-02-11T16:26:31;39.28;;;25.83;;
75061;SDS011;63641;46.526;24.612;2023-02-11T16:29:15;36.65;;;25.80;;
75061;SDS011;63641;46.526;24.612;2023-02-11T16:31:47;39.08;;;26.48;;
75061;SDS011;63641;46.526;24.612;2023-02-11T16:34:17;38.78;;;25.85;;
75061;SDS011;63641;46.526;24.612;2023-02-11T16:36:46;42.88;;;28.48;;
75061;SDS011;63641;46.526;24.612;2023-02-11T16:39:14;37.22;;;26.52;;
75061;SDS011;63641;46.526;24.612;2023-02-11T16:41:42;43.13;;;27.92;;
75061;SDS011;63641;46.526;24.612;2023-02-11T16:44:09;43.72;;;27.65;;
75061;SDS011;63641;46.526;24.612;2023-02-11T16:46:36;40.80;;;28.25;;
75061;SDS011;63641;46.526;24.612;2023-02-11T16:49:10;44.38;;;29.48;;
75061;SDS011;63641;46.526;24.612;2023-02-11T16:51:42;44.08;;;28.58;;
75061;SDS011;63641;46.526;24.612;2023-02-11T16:54:13;44.40;;;27.42;;
75061;SDS011;63641;46.526;24.612;2023-02-11T16:56:42;43.83;;;27.00;;
75061;SDS011;63641;46.526;24.612;2023-02-11T16:59:09;41.90;;;28.25;;
75061;SDS011;63641;46.526;24.612;2023-02-11T17:01:37;44.42;;;28.35;;
75061;SDS011;63641;46.526;24.612;2023-02-11T17:04:05;49.75;;;31.45;;
75061;SDS011;63641;46.526;24.612;2023-02-11T17:06:36;43.78;;;27.80;;
75061;SDS011;63641;46.526;24.612;2023-02-11T17:09:03;47.85;;;33.30;;
75061;SDS011;63641;46.526;24.612;2023-02-11T17:11:31;46.42;;;31.02;;
75061;SDS011;63641;46.526;24.612;2023-02-11T17:13:58;57.65;;;34.25;;
75061;SDS011;63641;46.526;24.612;2023-02-11T17:16:25;52.80;;;33.83;;
75061;SDS011;63641;46.526;24.612;2023-02-11T17:18:55;54.33;;;34.47;;
75061;SDS011;63641;46.526;24.612;2023-02-11T17:21:21;60.92;;;35.97;;
75061;SDS011;63641;46.526;24.612;2023-02-11T17:23:53;55.00;;;32.33;;
75061;SDS011;63641;46.526;24.612;2023-02-11T17:26:20;49.40;;;30.52;;
75061;SDS011;63641;46.526;24.612;2023-02-11T17:28:47;49.05;;;28.55;;
75061;SDS011;63641;46.526;24.612;2023-02-11T17:31:14;38.33;;;25.52;;
75061;SDS011;63641;46.526;24.612;2023-02-11T17:33:41;46.55;;;28.75;;